sensor_id;sensor_type;location;lat;lon;timestamp;P1;durP1;ratioP1;P2;durP2;ratioP2
6203;SDS011;3135;42.602;23.468;2023-01-19T00:00:11;18.10;;;2.90;;
6203;SDS011;3135;42.602;23.468;2023-01-19T00:02:39;18.77;;;1.90;;
6203;SDS011;3135;42.602;23.468;2023-01-19T00:05:06;10.90;;;1.40;;
6203;SDS011;3135;42.602;23.468;2023-01-19T00:07:31;40.28;;;9.27;;
6203;SDS011;3135;42.602;23.468;2023-01-19T00:09:57;14.77;;;2.33;;
6203;SDS011;3135;42.602;23.468;2023-01-19T00:12:23;21.37;;;4.90;;
6203;SDS011;3135;42.602;23.468;2023-01-19T00:14:49;19.17;;;2.55;;
6203;SDS011;3135;42.602;23.468;2023-01-19T00:17:14;22.93;;;4.37;;
6203;SDS011;3135;42.602;23.468;2023-01-19T00:19:40;19.52;;;2.85;;
6203;SDS011;3135;42.602;23.468;2023-01-19T00:22:05;11.70;;;2.30;;
6203;SDS011;3135;42.602;23.468;2023-01-19T00:24:31;13.82;;;1.65;;
6203;SDS011;3135;42.602;23.468;2023-01-19T00:26:57;18.08;;;2.30;;
6203;SDS011;3135;42.602;23.468;2023-01-19T00:29:22;28.70;;;5.43;;
6203;SDS011;3135;42.602;23.468;2023-01-19T00:31:48;14.53;;;2.43;;
6203;SDS011;3135;42.602;23.468;2023-01-19T00:34:14;13.65;;;2.20;;
6203;SDS011;3135;42.602;23.468;2023-01-19T00:36:39;25.45;;;3.47;;
6203;SDS011;3135;42.602;23.468;2023-01-19T00:39:05;18.33;;;2.45;;
6203;SDS011;3135;42.602;23.468;2023-01-19T00:41:30;11.87;;;1.40;;
6203;SDS011;3135;42.602;23.468;2023-01-19T00:44:14;21.20;;;1.83;;
6203;SDS011;3135;42.602;23.468;2023-01-19T00:46:40;16.07;;;2.33;;
6203;SDS011;3135;42.602;23.468;2023-01-19T00:49:05;12.67;;;1.63;;
6203;SDS011;3135;42.602;23.468;2023-01-19T00:51:31;12.30;;;1.93;;
6203;SDS011;3135;42.602;23.468;2023-01-19T00:53:56;13.73;;;1.20;;
6203;SDS011;3135;42.602;23.468;2023-01-19T00:56:24;13.20;;;1.30;;
6203;SDS011;3135;42.602;23.468;2023-01-19T00:58:49;15.07;;;1.60;;
6203;SDS011;3135;42.602;23.468;2023-01-19T01:01:14;18.00;;;2.53;;
6203;SDS011;3135;42.602;23.468;2023-01-19T01:03:40;18.10;;;1.50;;
6203;SDS011;3135;42.602;23.468;2023-01-19T01:06:05;13.93;;;1.40;;
6203;SDS011;3135;42.602;23.468;2023-01-19T01:08:32;13.38;;;1.25;;
6203;SDS011;3135;42.602;23.468;2023-01-19T01:10:58;10.60;;;1.20;;
6203;SDS011;3135;42.602;23.468;2023-01-19T01:13:24;14.00;;;1.73;;
6203;SDS011;3135;42.602;23.468;2023-01-19T01:15:51;10.50;;;1.40;;
6203;SDS011;3135;42.602;23.468;2023-01-19T01:18:18;12.27;;;1.52;;
6203;SDS011;3135;42.602;23.468;2023-01-19T01:20:43;12.73;;;1.57;;
6203;SDS011;3135;42.602;23.468;2023-01-19T01:23:09;13.30;;;2.20;;
6203;SDS011;3135;42.602;23.468;2023-01-19T01:25:34;9.77;;;1.10;;
6203;SDS011;3135;42.602;23.468;2023-01-19T01:28:02;13.32;;;1.60;;
6203;SDS011;3135;42.602;23.468;2023-01-19T01:30:35;11.13;;;1.08;;
6203;SDS011;3135;42.602;23.468;2023-01-19T01:33:05;13.70;;;1.20;;
6203;SDS011;3135;42.602;23.468;2023-01-19T01:35:33;7.60;;;1.27;;
6203;SDS011;3135;42.602;23.468;2023-01-19T01:37:59;19.90;;;2.00;;
6203;SDS011;3135;42.602;23.468;2023-01-19T01:40:25;16.75;;;1.30;;
6203;SDS011;3135;42.602;23.468;2023-01-19T01:42:51;4.28;;;0.77;;
6203;SDS011;3135;42.602;23.468;2023-01-19T01:47:57;14.38;;;1.38;;
6203;SDS011;3135;42.602;23.468;2023-01-19T01:51:29;8.77;;;1.10;;
6203;SDS011;3135;42.602;23.468;2023-01-19T01:53:49;11.35;;;1.20;;
6203;SDS011;3135;42.602;23.468;2023-01-19T01:56:20;15.93;;;1.40;;
6203;SDS011;3135;42.602;23.468;2023-01-19T01:58:50;10.48;;;0.98;;
6203;SDS011;3135;42.602;23.468;2023-01-19T02:01:15;9.83;;;1.30;;
6203;SDS011;3135;42.602;23.468;2023-01-19T02:03:59;12.25;;;1.00;;
6203;SDS011;3135;42.602;23.468;2023-01-19T02:06:25;9.93;;;1.17;;
6203;SDS011;3135;42.602;23.468;2023-01-19T02:08:54;11.73;;;0.97;;
6203;SDS011;3135;42.602;23.468;2023-01-19T02:11:51;7.97;;;1.05;;
6203;SDS011;3135;42.602;23.468;2023-01-19T02:14:37;7.60;;;0.93;;
6203;SDS011;3135;42.602;23.468;2023-01-19T02:17:02;9.57;;;0.98;;
6203;SDS011;3135;42.602;23.468;2023-01-19T02:19:30;10.83;;;1.03;;
6203;SDS011;3135;42.602;23.468;2023-01-19T02:24:26;13.47;;;1.07;;
6203;SDS011;3135;42.602;23.468;2023-01-19T02:26:53;13.50;;;1.10;;
6203;SDS011;3135;42.602;23.468;2023-01-19T02:29:20;9.90;;;1.40;;
6203;SDS011;3135;42.602;23.468;2023-01-19T02:31:49;7.18;;;0.80;;
6203;SDS011;3135;42.602;23.468;2023-01-19T02:34:15;11.55;;;0.85;;
6203;SDS011;3135;42.602;23.468;2023-01-19T02:39:21;10.00;;;0.80;;
6203;SDS011;3135;42.602;23.468;2023-01-19T02:41:54;10.82;;;1.13;;
6203;SDS011;3135;42.602;23.468;2023-01-19T02:44:44;11.43;;;1.27;;
6203;SDS011;3135;42.602;23.468;2023-01-19T02:47:13;9.93;;;0.82;;
6203;SDS011;3135;42.602;23.468;2023-01-19T02:49:38;6.30;;;0.90;;
6203;SDS011;3135;42.602;23.468;2023-01-19T02:52:04;11.90;;;1.20;;
6203;SDS011;3135;42.602;23.468;2023-01-19T02:54:51;15.80;;;1.30;;
6203;SDS011;3135;42.602;23.468;2023-01-19T02:57:34;11.50;;;1.23;;
6203;SDS011;3135;42.602;23.468;2023-01-19T03:03:45;12.43;;;0.90;;
6203;SDS011;3135;42.602;23.468;2023-01-19T03:11:16;9.97;;;1.23;;
6203;SDS011;3135;42.602;23.468;2023-01-19T03:16:17;12.50;;;1.40;;
6203;SDS011;3135;42.602;23.468;2023-01-19T03:18:45;12.77;;;1.80;;
6203;SDS011;3135;42.602;23.468;2023-01-19T03:21:15;18.55;;;1.52;;
6203;SDS011;3135;42.602;23.468;2023-01-19T03:23:43;10.73;;;1.05;;
6203;SDS011;3135;42.602;23.468;2023-01-19T03:26:13;12.88;;;1.17;;
6203;SDS011;3135;42.602;23.468;2023-01-19T03:28:43;21.08;;;1.42;;
6203;SDS011;3135;42.602;23.468;2023-01-19T03:31:13;7.95;;;1.10;;
6203;SDS011;3135;42.602;23.468;2023-01-19T03:33:42;12.90;;;1.40;;
6203;SDS011;3135;42.602;23.468;2023-01-19T03:36:15;19.90;;;1.30;;
6203;SDS011;3135;42.602;23.468;2023-01-19T03:38:46;12.77;;;1.10;;
6203;SDS011;3135;42.602;23.468;2023-01-19T03:41:14;15.45;;;1.27;;
6203;SDS011;3135;42.602;23.468;2023-01-19T03:43:43;13.50;;;1.20;;
6203;SDS011;3135;42.602;23.468;2023-01-19T03:46:13;13.77;;;1.30;;
6203;SDS011;3135;42.602;23.468;2023-01-19T03:48:41;16.40;;;1.52;;
6203;SDS011;3135;42.602;23.468;2023-01-19T03:51:08;15.30;;;1.25;;
6203;SDS011;3135;42.602;23.468;2023-01-19T03:53:35;13.40;;;1.35;;
6203;SDS011;3135;42.602;23.468;2023-01-19T03:56:00;16.27;;;1.23;;
6203;SDS011;3135;42.602;23.468;2023-01-19T03:58:26;12.68;;;1.40;;
6203;SDS011;3135;42.602;23.468;2023-01-19T04:00:52;13.88;;;1.70;;
6203;SDS011;3135;42.602;23.468;2023-01-19T04:03:17;9.87;;;1.47;;
6203;SDS011;3135;42.602;23.468;2023-01-19T04:05:44;17.37;;;1.70;;
6203;SDS011;3135;42.602;23.468;2023-01-19T04:08:09;11.50;;;3.33;;
6203;SDS011;3135;42.602;23.468;2023-01-19T04:10:35;20.73;;;2.50;;
6203;SDS011;3135;42.602;23.468;2023-01-19T04:13:01;20.63;;;1.80;;
6203;SDS011;3135;42.602;23.468;2023-01-19T04:15:27;24.17;;;1.83;;
6203;SDS011;3135;42.602;23.468;2023-01-19T04:17:53;16.60;;;1.70;;
6203;SDS011;3135;42.602;23.468;2023-01-19T04:20:21;26.30;;;3.38;;
6203;SDS011;3135;42.602;23.468;2023-01-19T04:22:47;15.97;;;1.83;;
6203;SDS011;3135;42.602;23.468;2023-01-19T04:25:13;18.90;;;2.80;;
6203;SDS011;3135;42.602;23.468;2023-01-19T04:27:39;16.40;;;1.90;;
6203;SDS011;3135;42.602;23.468;2023-01-19T04:30:05;14.70;;;1.90;;
6203;SDS011;3135;42.602;23.468;2023-01-19T04:32:31;21.02;;;1.85;;
6203;SDS011;3135;42.602;23.468;2023-01-19T04:34:57;21.15;;;1.88;;
6203;SDS011;3135;42.602;23.468;2023-01-19T04:37:22;24.17;;;2.80;;
6203;SDS011;3135;42.602;23.468;2023-01-19T04:39:48;14.50;;;1.83;;
6203;SDS011;3135;42.602;23.468;2023-01-19T04:42:13;20.17;;;2.37;;
6203;SDS011;3135;42.602;23.468;2023-01-19T04:44:39;22.50;;;2.30;;
6203;SDS011;3135;42.602;23.468;2023-01-19T04:47:04;16.67;;;2.10;;
6203;SDS011;3135;42.602;23.468;2023-01-19T04:49:30;19.17;;;2.13;;
6203;SDS011;3135;42.602;23.468;2023-01-19T04:51:56;17.97;;;1.90;;
6203;SDS011;3135;42.602;23.468;2023-01-19T04:54:21;17.30;;;2.67;;
6203;SDS011;3135;42.602;23.468;2023-01-19T04:56:47;21.17;;;2.10;;
6203;SDS011;3135;42.602;23.468;2023-01-19T04:59:13;23.55;;;1.80;;
6203;SDS011;3135;42.602;23.468;2023-01-19T05:01:38;22.65;;;2.22;;
6203;SDS011;3135;42.602;23.468;2023-01-19T05:04:04;24.17;;;3.73;;
6203;SDS011;3135;42.602;23.468;2023-01-19T05:06:31;24.33;;;2.58;;
6203;SDS011;3135;42.602;23.468;2023-01-19T05:08:57;20.10;;;2.00;;
6203;SDS011;3135;42.602;23.468;2023-01-19T05:11:23;20.40;;;2.10;;
6203;SDS011;3135;42.602;23.468;2023-01-19T05:13:48;21.00;;;2.10;;
6203;SDS011;3135;42.602;23.468;2023-01-19T05:16:14;19.13;;;2.03;;
6203;SDS011;3135;42.602;23.468;2023-01-19T05:18:39;27.43;;;5.43;;
6203;SDS011;3135;42.602;23.468;2023-01-19T05:21:05;22.20;;;4.60;;
6203;SDS011;3135;42.602;23.468;2023-01-19T05:23:31;27.70;;;7.88;;
6203;SDS011;3135;42.602;23.468;2023-01-19T05:25:58;29.77;;;7.77;;
6203;SDS011;3135;42.602;23.468;2023-01-19T05:28:27;26.42;;;6.40;;
6203;SDS011;3135;42.602;23.468;2023-01-19T05:30:53;22.83;;;4.57;;
6203;SDS011;3135;42.602;23.468;2023-01-19T05:33:20;28.42;;;3.30;;
6203;SDS011;3135;42.602;23.468;2023-01-19T05:35:48;20.30;;;2.05;;
6203;SDS011;3135;42.602;23.468;2023-01-19T05:38:17;22.10;;;2.85;;
6203;SDS011;3135;42.602;23.468;2023-01-19T05:40:43;22.00;;;2.13;;
6203;SDS011;3135;42.602;23.468;2023-01-19T05:43:09;18.85;;;2.28;;
6203;SDS011;3135;42.602;23.468;2023-01-19T05:45:35;13.90;;;2.08;;
6203;SDS011;3135;42.602;23.468;2023-01-19T05:48:02;16.45;;;3.50;;
6203;SDS011;3135;42.602;23.468;2023-01-19T05:50:28;16.20;;;4.55;;
6203;SDS011;3135;42.602;23.468;2023-01-19T05:52:54;14.63;;;2.20;;
6203;SDS011;3135;42.602;23.468;2023-01-19T05:55:20;20.53;;;2.07;;
6203;SDS011;3135;42.602;23.468;2023-01-19T05:57:46;13.90;;;1.73;;
6203;SDS011;3135;42.602;23.468;2023-01-19T06:00:12;17.13;;;5.22;;
6203;SDS011;3135;42.602;23.468;2023-01-19T06:02:38;21.55;;;2.08;;
6203;SDS011;3135;42.602;23.468;2023-01-19T06:05:04;54.10;;;14.07;;
6203;SDS011;3135;42.602;23.468;2023-01-19T06:07:29;34.53;;;8.82;;
6203;SDS011;3135;42.602;23.468;2023-01-19T06:09:56;19.75;;;2.65;;
6203;SDS011;3135;42.602;23.468;2023-01-19T06:12:21;16.92;;;1.95;;
6203;SDS011;3135;42.602;23.468;2023-01-19T06:14:47;17.13;;;2.22;;
6203;SDS011;3135;42.602;23.468;2023-01-19T06:17:12;14.87;;;2.00;;
6203;SDS011;3135;42.602;23.468;2023-01-19T06:19:38;21.67;;;1.92;;
6203;SDS011;3135;42.602;23.468;2023-01-19T06:22:03;13.95;;;2.45;;
6203;SDS011;3135;42.602;23.468;2023-01-19T06:24:29;19.08;;;2.65;;
6203;SDS011;3135;42.602;23.468;2023-01-19T06:26:54;20.95;;;2.40;;
6203;SDS011;3135;42.602;23.468;2023-01-19T06:29:20;16.02;;;2.38;;
6203;SDS011;3135;42.602;23.468;2023-01-19T06:31:46;16.83;;;2.15;;
6203;SDS011;3135;42.602;23.468;2023-01-19T06:34:11;17.87;;;1.97;;
6203;SDS011;3135;42.602;23.468;2023-01-19T06:36:37;17.42;;;2.13;;
6203;SDS011;3135;42.602;23.468;2023-01-19T06:39:03;20.83;;;2.22;;
6203;SDS011;3135;42.602;23.468;2023-01-19T06:41:33;16.23;;;2.40;;
6203;SDS011;3135;42.602;23.468;2023-01-19T06:43:59;21.98;;;2.78;;
6203;SDS011;3135;42.602;23.468;2023-01-19T06:46:24;29.07;;;2.53;;
6203;SDS011;3135;42.602;23.468;2023-01-19T06:48:50;22.87;;;3.43;;
6203;SDS011;3135;42.602;23.468;2023-01-19T06:51:16;21.50;;;3.60;;
6203;SDS011;3135;42.602;23.468;2023-01-19T06:53:41;24.10;;;3.78;;
6203;SDS011;3135;42.602;23.468;2023-01-19T06:56:07;17.27;;;2.67;;
6203;SDS011;3135;42.602;23.468;2023-01-19T06:58:33;14.93;;;2.35;;
6203;SDS011;3135;42.602;23.468;2023-01-19T07:01:05;18.90;;;2.30;;
6203;SDS011;3135;42.602;23.468;2023-01-19T07:03:31;24.67;;;3.83;;
6203;SDS011;3135;42.602;23.468;2023-01-19T07:05:56;24.40;;;4.93;;
6203;SDS011;3135;42.602;23.468;2023-01-19T07:08:24;22.23;;;4.40;;
6203;SDS011;3135;42.602;23.468;2023-01-19T07:10:50;27.00;;;5.95;;
6203;SDS011;3135;42.602;23.468;2023-01-19T07:13:15;30.92;;;6.28;;
6203;SDS011;3135;42.602;23.468;2023-01-19T07:15:41;19.20;;;4.27;;
6203;SDS011;3135;42.602;23.468;2023-01-19T07:18:06;25.63;;;5.17;;
6203;SDS011;3135;42.602;23.468;2023-01-19T07:20:33;30.55;;;7.10;;
6203;SDS011;3135;42.602;23.468;2023-01-19T07:22:59;50.63;;;11.93;;
6203;SDS011;3135;42.602;23.468;2023-01-19T07:25:25;39.97;;;8.60;;
6203;SDS011;3135;42.602;23.468;2023-01-19T07:27:51;27.10;;;5.03;;
6203;SDS011;3135;42.602;23.468;2023-01-19T07:30:20;17.65;;;3.83;;
6203;SDS011;3135;42.602;23.468;2023-01-19T07:32:45;19.70;;;4.93;;
6203;SDS011;3135;42.602;23.468;2023-01-19T07:35:11;25.17;;;6.03;;
6203;SDS011;3135;42.602;23.468;2023-01-19T07:37:36;27.40;;;4.93;;
6203;SDS011;3135;42.602;23.468;2023-01-19T07:40:02;17.27;;;3.70;;
6203;SDS011;3135;42.602;23.468;2023-01-19T07:42:28;20.37;;;3.80;;
6203;SDS011;3135;42.602;23.468;2023-01-19T07:44:53;17.97;;;3.27;;
6203;SDS011;3135;42.602;23.468;2023-01-19T07:47:18;18.87;;;2.90;;
6203;SDS011;3135;42.602;23.468;2023-01-19T07:49:44;23.37;;;3.23;;
6203;SDS011;3135;42.602;23.468;2023-01-19T07:52:09;25.90;;;3.60;;
6203;SDS011;3135;42.602;23.468;2023-01-19T07:54:35;16.77;;;3.27;;
6203;SDS011;3135;42.602;23.468;2023-01-19T07:57:02;20.15;;;2.58;;
6203;SDS011;3135;42.602;23.468;2023-01-19T07:59:27;18.60;;;2.60;;
6203;SDS011;3135;42.602;23.468;2023-01-19T08:01:54;22.85;;;2.70;;
6203;SDS011;3135;42.602;23.468;2023-01-19T08:04:22;26.75;;;2.83;;
6203;SDS011;3135;42.602;23.468;2023-01-19T08:06:47;17.30;;;1.98;;
6203;SDS011;3135;42.602;23.468;2023-01-19T08:09:13;17.35;;;2.30;;
6203;SDS011;3135;42.602;23.468;2023-01-19T08:11:38;17.00;;;2.15;;
6203;SDS011;3135;42.602;23.468;2023-01-19T08:14:04;21.73;;;4.03;;
6203;SDS011;3135;42.602;23.468;2023-01-19T08:16:29;19.27;;;3.10;;
6203;SDS011;3135;42.602;23.468;2023-01-19T08:18:55;24.27;;;2.60;;
6203;SDS011;3135;42.602;23.468;2023-01-19T08:21:20;16.17;;;2.07;;
6203;SDS011;3135;42.602;23.468;2023-01-19T08:23:55;24.73;;;2.33;;
6203;SDS011;3135;42.602;23.468;2023-01-19T08:28:53;23.45;;;2.20;;
6203;SDS011;3135;42.602;23.468;2023-01-19T08:31:20;24.42;;;2.60;;
6203;SDS011;3135;42.602;23.468;2023-01-19T08:33:46;26.25;;;2.88;;
6203;SDS011;3135;42.602;23.468;2023-01-19T08:36:11;23.03;;;2.27;;
6203;SDS011;3135;42.602;23.468;2023-01-19T08:38:37;22.37;;;2.10;;
6203;SDS011;3135;42.602;23.468;2023-01-19T08:41:05;29.23;;;2.25;;
6203;SDS011;3135;42.602;23.468;2023-01-19T08:43:30;30.55;;;3.92;;
6203;SDS011;3135;42.602;23.468;2023-01-19T08:45:56;26.63;;;2.47;;
6203;SDS011;3135;42.602;23.468;2023-01-19T08:48:21;20.23;;;2.17;;
6203;SDS011;3135;42.602;23.468;2023-01-19T08:50:48;22.35;;;2.60;;
6203;SDS011;3135;42.602;23.468;2023-01-19T08:53:14;19.25;;;2.10;;
6203;SDS011;3135;42.602;23.468;2023-01-19T08:55:40;21.27;;;2.85;;
6203;SDS011;3135;42.602;23.468;2023-01-19T08:58:06;22.80;;;2.55;;
6203;SDS011;3135;42.602;23.468;2023-01-19T09:00:33;22.25;;;2.00;;
6203;SDS011;3135;42.602;23.468;2023-01-19T09:02:59;21.65;;;2.20;;
6203;SDS011;3135;42.602;23.468;2023-01-19T09:05:28;20.00;;;2.70;;
6203;SDS011;3135;42.602;23.468;2023-01-19T09:08:03;16.70;;;1.90;;
6203;SDS011;3135;42.602;23.468;2023-01-19T09:10:33;20.13;;;2.08;;
6203;SDS011;3135;42.602;23.468;2023-01-19T09:13:02;23.58;;;2.65;;
6203;SDS011;3135;42.602;23.468;2023-01-19T09:15:29;19.17;;;2.13;;
6203;SDS011;3135;42.602;23.468;2023-01-19T09:17:56;16.02;;;1.92;;
6203;SDS011;3135;42.602;23.468;2023-01-19T09:20:22;11.60;;;1.67;;
6203;SDS011;3135;42.602;23.468;2023-01-19T09:22:47;26.13;;;2.00;;
6203;SDS011;3135;42.602;23.468;2023-01-19T09:25:13;16.20;;;2.20;;
6203;SDS011;3135;42.602;23.468;2023-01-19T09:27:38;17.00;;;1.97;;
6203;SDS011;3135;42.602;23.468;2023-01-19T09:30:04;15.33;;;1.80;;
6203;SDS011;3135;42.602;23.468;2023-01-19T09:32:30;15.77;;;1.90;;
6203;SDS011;3135;42.602;23.468;2023-01-19T09:34:56;15.40;;;2.00;;
6203;SDS011;3135;42.602;23.468;2023-01-19T09:37:22;11.93;;;1.55;;
6203;SDS011;3135;42.602;23.468;2023-01-19T09:39:47;13.13;;;1.77;;
6203;SDS011;3135;42.602;23.468;2023-01-19T09:42:18;17.60;;;1.97;;
6203;SDS011;3135;42.602;23.468;2023-01-19T09:44:47;14.40;;;1.33;;
6203;SDS011;3135;42.602;23.468;2023-01-19T09:47:16;16.13;;;1.88;;
6203;SDS011;3135;42.602;23.468;2023-01-19T09:49:47;14.85;;;1.52;;
6203;SDS011;3135;42.602;23.468;2023-01-19T09:52:22;15.65;;;1.70;;
6203;SDS011;3135;42.602;23.468;2023-01-19T09:54:54;12.32;;;1.83;;
6203;SDS011;3135;42.602;23.468;2023-01-19T09:57:22;9.43;;;1.40;;
6203;SDS011;3135;42.602;23.468;2023-01-19T09:59:48;14.15;;;1.40;;
6203;SDS011;3135;42.602;23.468;2023-01-19T10:13:27;16.00;;;1.57;;
6203;SDS011;3135;42.602;23.468;2023-01-19T10:18:37;12.87;;;1.63;;
6203;SDS011;3135;42.602;23.468;2023-01-19T10:21:11;9.30;;;1.60;;
6203;SDS011;3135;42.602;23.468;2023-01-19T10:26:23;12.45;;;1.38;;
6203;SDS011;3135;42.602;23.468;2023-01-19T10:29:00;7.55;;;1.10;;
6203;SDS011;3135;42.602;23.468;2023-01-19T10:31:29;12.45;;;1.33;;
6203;SDS011;3135;42.602;23.468;2023-01-19T10:33:57;9.10;;;1.03;;
6203;SDS011;3135;42.602;23.468;2023-01-19T10:36:33;15.37;;;1.23;;
6203;SDS011;3135;42.602;23.468;2023-01-19T10:39:02;14.55;;;1.40;;
6203;SDS011;3135;42.602;23.468;2023-01-19T10:41:38;9.45;;;1.55;;
6203;SDS011;3135;42.602;23.468;2023-01-19T10:44:04;7.93;;;1.30;;
6203;SDS011;3135;42.602;23.468;2023-01-19T10:46:40;11.32;;;1.10;;
6203;SDS011;3135;42.602;23.468;2023-01-19T10:49:29;14.98;;;1.40;;
6203;SDS011;3135;42.602;23.468;2023-01-19T10:52:05;7.03;;;1.00;;
6203;SDS011;3135;42.602;23.468;2023-01-19T10:54:32;10.85;;;1.17;;
6203;SDS011;3135;42.602;23.468;2023-01-19T10:57:06;9.65;;;1.67;;
6203;SDS011;3135;42.602;23.468;2023-01-19T10:59:45;10.37;;;1.20;;
6203;SDS011;3135;42.602;23.468;2023-01-19T11:04:42;14.13;;;1.40;;
6203;SDS011;3135;42.602;23.468;2023-01-19T11:07:28;12.27;;;1.30;;
6203;SDS011;3135;42.602;23.468;2023-01-19T11:12:52;12.82;;;1.20;;
6203;SDS011;3135;42.602;23.468;2023-01-19T11:15:22;11.15;;;1.20;;
6203;SDS011;3135;42.602;23.468;2023-01-19T11:17:52;15.98;;;1.20;;
6203;SDS011;3135;42.602;23.468;2023-01-19T11:20:22;11.85;;;1.13;;
6203;SDS011;3135;42.602;23.468;2023-01-19T11:25:57;18.50;;;1.45;;
6203;SDS011;3135;42.602;23.468;2023-01-19T11:28:29;14.65;;;1.55;;
6203;SDS011;3135;42.602;23.468;2023-01-19T11:30:58;10.25;;;1.13;;
6203;SDS011;3135;42.602;23.468;2023-01-19T11:33:27;10.98;;;1.33;;
6203;SDS011;3135;42.602;23.468;2023-01-19T11:36:05;8.40;;;1.10;;
6203;SDS011;3135;42.602;23.468;2023-01-19T11:38:40;10.20;;;1.10;;
6203;SDS011;3135;42.602;23.468;2023-01-19T11:41:10;9.85;;;1.20;;
6203;SDS011;3135;42.602;23.468;2023-01-19T11:43:42;9.20;;;0.90;;
6203;SDS011;3135;42.602;23.468;2023-01-19T11:46:08;6.45;;;1.17;;
6203;SDS011;3135;42.602;23.468;2023-01-19T11:48:38;7.43;;;1.10;;
6203;SDS011;3135;42.602;23.468;2023-01-19T11:51:11;7.70;;;1.00;;
6203;SDS011;3135;42.602;23.468;2023-01-19T11:53:39;12.17;;;1.00;;
6203;SDS011;3135;42.602;23.468;2023-01-19T11:56:12;6.53;;;1.10;;
6203;SDS011;3135;42.602;23.468;2023-01-19T11:58:39;5.35;;;1.00;;
6203;SDS011;3135;42.602;23.468;2023-01-19T12:06:35;6.10;;;0.95;;
6203;SDS011;3135;42.602;23.468;2023-01-19T12:09:06;7.10;;;0.87;;
6203;SDS011;3135;42.602;23.468;2023-01-19T12:11:43;8.52;;;0.85;;
6203;SDS011;3135;42.602;23.468;2023-01-19T12:14:22;5.27;;;0.67;;
6203;SDS011;3135;42.602;23.468;2023-01-19T12:16:51;5.18;;;0.70;;
6203;SDS011;3135;42.602;23.468;2023-01-19T12:19:23;6.03;;;0.80;;
6203;SDS011;3135;42.602;23.468;2023-01-19T12:21:53;6.30;;;0.93;;
6203;SDS011;3135;42.602;23.468;2023-01-19T12:24:31;9.15;;;1.00;;
6203;SDS011;3135;42.602;23.468;2023-01-19T12:27:07;6.32;;;0.85;;
6203;SDS011;3135;42.602;23.468;2023-01-19T12:29:42;12.68;;;1.50;;
6203;SDS011;3135;42.602;23.468;2023-01-19T12:40:17;4.03;;;0.85;;
6203;SDS011;3135;42.602;23.468;2023-01-19T12:42:53;4.22;;;1.00;;
6203;SDS011;3135;42.602;23.468;2023-01-19T12:45:23;10.07;;;1.05;;
6203;SDS011;3135;42.602;23.468;2023-01-19T12:47:53;4.35;;;0.85;;
6203;SDS011;3135;42.602;23.468;2023-01-19T12:50:21;6.85;;;0.90;;
6203;SDS011;3135;42.602;23.468;2023-01-19T12:52:50;9.40;;;0.80;;
6203;SDS011;3135;42.602;23.468;2023-01-19T13:00:32;9.90;;;1.40;;
6203;SDS011;3135;42.602;23.468;2023-01-19T13:05:54;17.25;;;4.63;;
6203;SDS011;3135;42.602;23.468;2023-01-19T13:08:21;61.70;;;13.40;;
6203;SDS011;3135;42.602;23.468;2023-01-19T13:18:42;5.45;;;1.10;;
6203;SDS011;3135;42.602;23.468;2023-01-19T13:26:34;6.60;;;1.43;;
6203;SDS011;3135;42.602;23.468;2023-01-19T13:31:37;9.32;;;3.28;;
6203;SDS011;3135;42.602;23.468;2023-01-19T13:34:09;11.75;;;5.93;;
6203;SDS011;3135;42.602;23.468;2023-01-19T13:36:38;6.47;;;1.42;;
6203;SDS011;3135;42.602;23.468;2023-01-19T13:39:14;8.98;;;1.50;;
6203;SDS011;3135;42.602;23.468;2023-01-19T13:41:43;6.88;;;2.53;;
6203;SDS011;3135;42.602;23.468;2023-01-19T13:46:42;7.43;;;1.83;;
6203;SDS011;3135;42.602;23.468;2023-01-19T13:49:16;5.80;;;1.25;;
6203;SDS011;3135;42.602;23.468;2023-01-19T13:51:45;4.57;;;0.88;;
6203;SDS011;3135;42.602;23.468;2023-01-19T13:54:14;2.90;;;0.60;;
6203;SDS011;3135;42.602;23.468;2023-01-19T13:56:45;7.23;;;1.00;;
6203;SDS011;3135;42.602;23.468;2023-01-19T13:59:14;7.93;;;0.65;;
6203;SDS011;3135;42.602;23.468;2023-01-19T14:01:43;3.72;;;0.90;;
6203;SDS011;3135;42.602;23.468;2023-01-19T14:04:32;5.35;;;0.68;;
6203;SDS011;3135;42.602;23.468;2023-01-19T14:07:05;4.97;;;0.80;;
6203;SDS011;3135;42.602;23.468;2023-01-19T14:09:37;4.60;;;0.80;;
6203;SDS011;3135;42.602;23.468;2023-01-19T14:12:05;2.50;;;0.50;;
6203;SDS011;3135;42.602;23.468;2023-01-19T14:14:34;8.48;;;0.90;;
6203;SDS011;3135;42.602;23.468;2023-01-19T14:17:00;3.00;;;0.90;;
6203;SDS011;3135;42.602;23.468;2023-01-19T14:19:26;4.00;;;1.30;;
6203;SDS011;3135;42.602;23.468;2023-01-19T14:22:02;3.93;;;0.87;;
6203;SDS011;3135;42.602;23.468;2023-01-19T14:24:28;3.13;;;1.00;;
6203;SDS011;3135;42.602;23.468;2023-01-19T14:27:16;2.72;;;0.63;;
6203;SDS011;3135;42.602;23.468;2023-01-19T14:29:48;8.30;;;1.07;;
6203;SDS011;3135;42.602;23.468;2023-01-19T14:37:35;4.95;;;1.20;;
6203;SDS011;3135;42.602;23.468;2023-01-19T14:47:56;6.07;;;1.42;;
6203;SDS011;3135;42.602;23.468;2023-01-19T14:50:37;4.90;;;1.10;;
6203;SDS011;3135;42.602;23.468;2023-01-19T14:53:05;9.60;;;1.20;;
6203;SDS011;3135;42.602;23.468;2023-01-19T14:55:43;4.35;;;1.38;;
6203;SDS011;3135;42.602;23.468;2023-01-19T14:58:12;5.25;;;2.60;;
6203;SDS011;3135;42.602;23.468;2023-01-19T15:00:40;4.22;;;1.40;;
6203;SDS011;3135;42.602;23.468;2023-01-19T15:03:07;5.63;;;1.10;;
6203;SDS011;3135;42.602;23.468;2023-01-19T15:05:39;4.63;;;1.20;;
6203;SDS011;3135;42.602;23.468;2023-01-19T15:08:10;4.15;;;1.05;;
6203;SDS011;3135;42.602;23.468;2023-01-19T15:10:39;3.40;;;1.20;;
6203;SDS011;3135;42.602;23.468;2023-01-19T15:13:04;9.00;;;1.88;;
6203;SDS011;3135;42.602;23.468;2023-01-19T15:15:31;4.83;;;1.10;;
6203;SDS011;3135;42.602;23.468;2023-01-19T15:17:57;4.93;;;1.10;;
6203;SDS011;3135;42.602;23.468;2023-01-19T15:20:25;6.97;;;0.97;;
6203;SDS011;3135;42.602;23.468;2023-01-19T15:22:50;6.23;;;0.93;;
6203;SDS011;3135;42.602;23.468;2023-01-19T15:25:16;2.53;;;0.80;;
6203;SDS011;3135;42.602;23.468;2023-01-19T15:27:44;2.35;;;0.90;;
6203;SDS011;3135;42.602;23.468;2023-01-19T15:32:47;4.80;;;0.73;;
6203;SDS011;3135;42.602;23.468;2023-01-19T15:35:14;4.65;;;0.60;;
6203;SDS011;3135;42.602;23.468;2023-01-19T15:37:44;4.60;;;1.70;;
6203;SDS011;3135;42.602;23.468;2023-01-19T15:40:10;4.50;;;1.40;;
6203;SDS011;3135;42.602;23.468;2023-01-19T15:42:36;2.20;;;0.90;;
6203;SDS011;3135;42.602;23.468;2023-01-19T15:45:02;1.30;;;0.40;;
6203;SDS011;3135;42.602;23.468;2023-01-19T15:47:57;5.10;;;0.80;;
6203;SDS011;3135;42.602;23.468;2023-01-19T15:50:23;2.10;;;0.40;;
6203;SDS011;3135;42.602;23.468;2023-01-19T15:52:49;2.70;;;0.60;;
6203;SDS011;3135;42.602;23.468;2023-01-19T15:55:15;1.08;;;0.65;;
6203;SDS011;3135;42.602;23.468;2023-01-19T15:57:41;1.33;;;0.55;;
6203;SDS011;3135;42.602;23.468;2023-01-19T16:00:07;1.87;;;0.40;;
6203;SDS011;3135;42.602;23.468;2023-01-19T16:02:37;5.32;;;0.65;;
6203;SDS011;3135;42.602;23.468;2023-01-19T16:05:02;2.45;;;1.10;;
6203;SDS011;3135;42.602;23.468;2023-01-19T16:07:29;2.53;;;0.60;;
6203;SDS011;3135;42.602;23.468;2023-01-19T16:09:54;16.30;;;5.03;;
6203;SDS011;3135;42.602;23.468;2023-01-19T16:12:19;2.75;;;0.63;;
6203;SDS011;3135;42.602;23.468;2023-01-19T16:14:45;4.63;;;0.60;;
6203;SDS011;3135;42.602;23.468;2023-01-19T16:17:10;3.87;;;1.00;;
6203;SDS011;3135;42.602;23.468;2023-01-19T16:19:36;2.20;;;0.40;;
6203;SDS011;3135;42.602;23.468;2023-01-19T16:22:01;2.87;;;0.60;;
6203;SDS011;3135;42.602;23.468;2023-01-19T16:24:29;3.60;;;0.57;;
6203;SDS011;3135;42.602;23.468;2023-01-19T16:26:55;1.10;;;0.40;;
6203;SDS011;3135;42.602;23.468;2023-01-19T16:29:20;1.60;;;0.30;;
6203;SDS011;3135;42.602;23.468;2023-01-19T16:31:46;2.10;;;0.30;;
6203;SDS011;3135;42.602;23.468;2023-01-19T16:34:11;3.25;;;2.28;;
6203;SDS011;3135;42.602;23.468;2023-01-19T16:36:38;5.18;;;3.63;;
6203;SDS011;3135;42.602;23.468;2023-01-19T16:39:05;5.28;;;2.72;;
6203;SDS011;3135;42.602;23.468;2023-01-19T16:41:32;2.60;;;1.40;;